Time;durP1;ratioP1;P1;durP2;ratioP2;P2;SDS_P1;SDS_P2;PMS_P1;PMS_P2;Temp;Humidity;BMP_temperature;BMP_pressure;BME280_temperature;BME280_humidity;BME280_pressure;Samples;Min_cycle;Max_cycle;Signal;HPM_P1;HPM_P2
2024/01/29 00:01:36;;;;;;;;;54.50;43.00;;;;;;;;5078153;28;45405;-75
2024/01/29 00:04:01;;;;;;;;;48.00;39.50;;;;;;;;5081592;28;45303;-76
2024/01/29 00:06:26;;;;;;;;;48.00;41.00;;;;;;;;5077671;28;45302;-76
2024/01/29 00:08:52;;;;;;;;;49.75;42.00;;;;;;;;5080150;28;45451;-76
2024/01/29 00:11:17;;;;;;;;;50.00;39.25;;;;;;;;5074165;28;45242;-76
2024/01/29 00:13:44;;;;;;;;;48.00;41.50;;;;;;;;5082234;28;45480;-74
2024/01/29 00:16:10;;;;;;;;;50.00;39.25;;;;;;;;5074894;28;48189;-74
2024/01/29 00:18:35;;;;;;;;;54.25;41.50;;;;;;;;5081128;27;45397;-74
2024/01/29 00:21:00;;;;;;;;;53.25;43.25;;;;;;;;5082060;27;45318;-76
2024/01/29 00:23:25;;;;;;;;;54.00;42.75;;;;;;;;5073210;28;47350;-76
2024/01/29 00:25:50;;;;;;;;;49.00;40.00;;;;;;;;5080263;28;45322;-75
2024/01/29 00:28:15;;;;;;;;;53.00;40.25;;;;;;;;5081959;27;47109;-74
2024/01/29 00:30:41;;;;;;;;;49.00;41.75;;;;;;;;5068247;28;45293;-74
2024/01/29 00:33:06;;;;;;;;;60.00;46.50;;;;;;;;5084503;28;45446;-74
2024/01/29 00:35:31;;;;;;;;;56.25;46.00;;;;;;;;5070773;28;45586;-74
2024/01/29 00:37:56;;;;;;;;;58.00;46.75;;;;;;;;5083900;28;45413;-74
2024/01/29 00:40:21;;;;;;;;;60.00;44.00;;;;;;;;5079541;28;45389;-75
2024/01/29 00:42:47;;;;;;;;;48.00;40.00;;;;;;;;5084352;28;45611;-76
2024/01/29 00:45:12;;;;;;;;;47.00;40.25;;;;;;;;5070191;28;45463;-76
2024/01/29 00:47:37;;;;;;;;;48.25;42.25;;;;;;;;5074030;28;45313;-74
2024/01/29 00:50:03;;;;;;;;;53.50;42.25;;;;;;;;5073266;28;45467;-74
2024/01/29 00:52:28;;;;;;;;;55.75;43.00;;;;;;;;5075627;28;45285;-75
2024/01/29 00:54:53;;;;;;;;;54.75;46.00;;;;;;;;5081452;28;46585;-75
2024/01/29 00:57:20;;;;;;;;;54.25;40.50;;;;;;;;5076296;28;45459;-74
2024/01/29 00:59:45;;;;;;;;;54.00;45.75;;;;;;;;5081510;27;45402;-74
2024/01/29 01:02:10;;;;;;;;;46.00;40.50;;;;;;;;5081355;27;45570;-74
2024/01/29 01:04:35;;;;;;;;;51.25;42.50;;;;;;;;5080236;28;47327;-74
2024/01/29 01:07:01;;;;;;;;;42.50;38.50;;;;;;;;5078672;28;45494;-74
2024/01/29 01:09:26;;;;;;;;;51.50;40.00;;;;;;;;5077156;27;45433;-74
2024/01/29 01:11:51;;;;;;;;;53.00;38.75;;;;;;;;5078349;28;45325;-74
2024/01/29 01:14:16;;;;;;;;;50.00;41.00;;;;;;;;5081044;28;46755;-74
2024/01/29 01:16:41;;;;;;;;;50.25;39.75;;;;;;;;5080384;28;45360;-74
2024/01/29 01:19:06;;;;;;;;;52.00;42.50;;;;;;;;5080903;28;45504;-75
2024/01/29 01:21:32;;;;;;;;;40.50;37.50;;;;;;;;5080045;28;45336;-75
2024/01/29 01:23:57;;;;;;;;;54.50;39.25;;;;;;;;5080674;28;45501;-75
2024/01/29 01:26:22;;;;;;;;;44.50;38.75;;;;;;;;5081930;28;45451;-75
2024/01/29 01:28:47;;;;;;;;;44.75;40.25;;;;;;;;5079994;28;45531;-75
2024/01/29 01:31:12;;;;;;;;;47.00;40.00;;;;;;;;5067459;28;45442;-75
2024/01/29 01:33:38;;;;;;;;;47.25;41.50;;;;;;;;5081454;28;45447;-75
2024/01/29 01:36:03;;;;;;;;;44.50;39.00;;;;;;;;5078552;28;45445;-75
2024/01/29 01:38:28;;;;;;;;;53.00;40.50;;;;;;;;5080955;28;45534;-75
2024/01/29 01:40:53;;;;;;;;;49.50;43.00;;;;;;;;5071709;28;45341;-75
2024/01/29 01:43:20;;;;;;;;;39.75;37.25;;;;;;;;5079907;28;47227;-75
2024/01/29 01:45:54;;;;;;;;;47.25;38.75;;;;;;;;5074267;28;45240;-75
2024/01/29 01:48:19;;;;;;;;;50.75;40.50;;;;;;;;5081316;28;45428;-75
2024/01/29 01:50:45;;;;;;;;;47.75;40.50;;;;;;;;5070975;28;45298;-75
2024/01/29 01:53:10;;;;;;;;;55.00;42.00;;;;;;;;5079548;27;46375;-75
2024/01/29 01:55:35;;;;;;;;;48.00;40.00;;;;;;;;5072300;28;45409;-75
2024/01/29 01:58:01;;;;;;;;;46.00;39.00;;;;;;;;5079362;28;45290;-75
2024/01/29 02:00:26;;;;;;;;;49.25;40.50;;;;;;;;5079638;28;45417;-75
2024/01/29 02:02:52;;;;;;;;;49.75;42.00;;;;;;;;5078233;28;45277;-75
2024/01/29 02:05:17;;;;;;;;;54.25;43.25;;;;;;;;5080288;28;45326;-76
2024/01/29 02:07:42;;;;;;;;;46.00;39.00;;;;;;;;5077721;28;45393;-75
2024/01/29 02:10:08;;;;;;;;;51.25;40.00;;;;;;;;5074169;28;47436;-75
2024/01/29 02:12:33;;;;;;;;;49.50;41.50;;;;;;;;5078694;28;46530;-75
2024/01/29 02:14:58;;;;;;;;;49.75;39.25;;;;;;;;5078958;28;45341;-75
2024/01/29 02:17:24;;;;;;;;;52.50;41.50;;;;;;;;5085153;28;45283;-74
2024/01/29 02:19:49;;;;;;;;;51.50;41.50;;;;;;;;5084426;28;45374;-75
2024/01/29 02:22:14;;;;;;;;;43.00;38.00;;;;;;;;5083440;27;47195;-75
2024/01/29 02:24:39;;;;;;;;;48.50;40.75;;;;;;;;5080736;28;45242;-75
2024/01/29 02:27:05;;;;;;;;;46.25;40.25;;;;;;;;5086386;27;45462;-75
2024/01/29 02:29:31;;;;;;;;;46.50;41.00;;;;;;;;5078901;27;45537;-75
2024/01/29 02:31:56;;;;;;;;;46.25;39.00;;;;;;;;5077136;28;45251;-74
2024/01/29 02:34:21;;;;;;;;;52.50;38.25;;;;;;;;5080932;28;45451;-74
2024/01/29 02:36:46;;;;;;;;;47.00;37.00;;;;;;;;5076738;28;45447;-74
2024/01/29 02:39:12;;;;;;;;;46.75;38.25;;;;;;;;5084083;28;45437;-75
2024/01/29 02:41:37;;;;;;;;;50.75;41.00;;;;;;;;5078784;28;45478;-75
2024/01/29 02:44:03;;;;;;;;;45.00;38.50;;;;;;;;5078509;28;45424;-75
2024/01/29 02:46:28;;;;;;;;;40.25;38.50;;;;;;;;5073305;28;45500;-75
2024/01/29 02:48:53;;;;;;;;;53.25;42.25;;;;;;;;5082107;28;45321;-75
2024/01/29 02:51:18;;;;;;;;;53.25;40.75;;;;;;;;5069439;28;46268;-75
2024/01/29 02:53:43;;;;;;;;;45.00;40.00;;;;;;;;5082569;28;45249;-75
2024/01/29 02:56:09;;;;;;;;;41.50;38.25;;;;;;;;5071921;28;45664;-75
2024/01/29 02:58:34;;;;;;;;;45.50;39.00;;;;;;;;5082960;28;45485;-75
2024/01/29 03:00:59;;;;;;;;;49.00;39.75;;;;;;;;5074373;28;46087;-75
2024/01/29 03:03:24;;;;;;;;;43.00;39.50;;;;;;;;5081793;28;45244;-75
2024/01/29 03:05:49;;;;;;;;;41.75;37.75;;;;;;;;5073688;28;45618;-75
2024/01/29 03:08:14;;;;;;;;;44.50;40.25;;;;;;;;5084504;28;45583;-75
2024/01/29 03:10:40;;;;;;;;;46.00;37.50;;;;;;;;5076114;28;47508;-75
2024/01/29 03:13:05;;;;;;;;;46.00;39.00;;;;;;;;5083592;28;45348;-74
2024/01/29 03:15:30;;;;;;;;;42.75;39.00;;;;;;;;5075971;28;45530;-74
2024/01/29 03:17:55;;;;;;;;;42.00;39.00;;;;;;;;5085161;28;45242;-74
2024/01/29 03:20:21;;;;;;;;;42.25;37.50;;;;;;;;5079297;28;45623;-75
2024/01/29 03:22:46;;;;;;;;;43.00;38.75;;;;;;;;5088125;27;45147;-75
2024/01/29 03:25:11;;;;;;;;;45.50;38.00;;;;;;;;5081162;27;45144;-75
2024/01/29 03:27:36;;;;;;;;;41.75;37.25;;;;;;;;5085291;28;45590;-74
2024/01/29 03:30:01;;;;;;;;;43.00;37.00;;;;;;;;5072097;28;45415;-75
2024/01/29 03:32:27;;;;;;;;;45.00;39.50;;;;;;;;5079654;28;45331;-75
2024/01/29 03:34:52;;;;;;;;;46.75;38.75;;;;;;;;5077395;28;45364;-74
2024/01/29 03:37:17;;;;;;;;;47.00;38.50;;;;;;;;5081208;28;45470;-75
2024/01/29 03:39:42;;;;;;;;;50.50;40.00;;;;;;;;5078263;28;48225;-75
2024/01/29 03:42:07;;;;;;;;;55.25;42.50;;;;;;;;5081490;28;45281;-75
2024/01/29 03:44:33;;;;;;;;;36.75;34.25;;;;;;;;5078354;28;45590;-75
2024/01/29 03:46:58;;;;;;;;;44.25;39.00;;;;;;;;5082997;28;45361;-75
2024/01/29 03:49:23;;;;;;;;;43.25;36.50;;;;;;;;5077940;27;45560;-75
2024/01/29 03:51:48;;;;;;;;;37.00;36.50;;;;;;;;5081355;28;45330;-75
2024/01/29 03:54:13;;;;;;;;;41.75;37.00;;;;;;;;5077724;28;45610;-74
2024/01/29 03:56:39;;;;;;;;;37.25;35.25;;;;;;;;5076128;28;45486;-75
2024/01/29 03:59:04;;;;;;;;;40.00;35.00;;;;;;;;5077868;28;46514;-75
2024/01/29 04:01:29;;;;;;;;;35.00;35.00;;;;;;;;5077530;28;45333;-75
2024/01/29 04:03:55;;;;;;;;;35.75;32.75;;;;;;;;5080598;28;45496;-75
2024/01/29 04:06:21;;;;;;;;;32.50;28.50;;;;;;;;5077756;28;45269;-75
2024/01/29 04:08:46;;;;;;;;;42.75;36.00;;;;;;;;5081144;28;45348;-75
2024/01/29 04:11:11;;;;;;;;;33.25;31.50;;;;;;;;5073528;28;45926;-75
2024/01/29 04:13:37;;;;;;;;;39.00;36.25;;;;;;;;5082574;28;45360;-75
2024/01/29 04:16:02;;;;;;;;;44.50;35.25;;;;;;;;5078027;28;45297;-75
2024/01/29 04:18:28;;;;;;;;;36.50;34.50;;;;;;;;5081848;28;45383;-75
2024/01/29 04:20:53;;;;;;;;;32.25;30.50;;;;;;;;5080724;27;45366;-75
2024/01/29 04:23:18;;;;;;;;;31.50;29.50;;;;;;;;5083086;28;45516;-74
2024/01/29 04:25:43;;;;;;;;;39.50;33.00;;;;;;;;5077807;28;45474;-74
2024/01/29 04:28:08;;;;;;;;;34.00;30.00;;;;;;;;5087945;27;46224;-75
2024/01/29 04:30:34;;;;;;;;;37.75;30.25;;;;;;;;5068901;28;45379;-75
2024/01/29 04:32:59;;;;;;;;;33.25;30.25;;;;;;;;5083740;28;45273;-75
2024/01/29 04:35:24;;;;;;;;;32.75;31.75;;;;;;;;5071098;28;45399;-75
2024/01/29 04:37:49;;;;;;;;;29.25;27.50;;;;;;;;5083030;28;46668;-75
2024/01/29 04:40:14;;;;;;;;;28.33;27.00;;;;;;;;5074087;27;45223;-75
2024/01/29 04:42:40;;;;;;;;;31.75;29.75;;;;;;;;5083828;28;45251;-74
2024/01/29 04:45:05;;;;;;;;;35.00;29.75;;;;;;;;5072950;28;45557;-75
2024/01/29 04:47:30;;;;;;;;;36.25;33.00;;;;;;;;5074460;28;45539;-74
2024/01/29 04:49:55;;;;;;;;;31.75;26.50;;;;;;;;5075049;28;45258;-74
2024/01/29 04:52:21;;;;;;;;;29.50;27.75;;;;;;;;5082091;28;45250;-75
2024/01/29 04:54:46;;;;;;;;;28.50;27.00;;;;;;;;5080852;28;45290;-75
2024/01/29 04:57:11;;;;;;;;;33.00;25.75;;;;;;;;5076506;28;45356;-74
2024/01/29 04:59:36;;;;;;;;;28.50;26.25;;;;;;;;5075666;28;45404;-75
2024/01/29 05:02:01;;;;;;;;;37.25;30.00;;;;;;;;5081975;28;45294;-75
2024/01/29 05:04:26;;;;;;;;;36.25;30.00;;;;;;;;5077255;28;45391;-75
2024/01/29 05:06:52;;;;;;;;;23.67;23.67;;;;;;;;5077984;28;45753;-75
2024/01/29 05:09:17;;;;;;;;;31.00;29.75;;;;;;;;5076939;28;45249;-75
2024/01/29 05:11:42;;;;;;;;;30.33;25.67;;;;;;;;5076410;28;45597;-75
2024/01/29 05:14:08;;;;;;;;;29.00;25.67;;;;;;;;5078957;28;45508;-75
2024/01/29 05:16:34;;;;;;;;;29.00;29.00;;;;;;;;5077504;28;45256;-75
2024/01/29 05:18:59;;;;;;;;;30.25;28.00;;;;;;;;5081058;28;45329;-75
2024/01/29 05:21:24;;;;;;;;;29.67;24.67;;;;;;;;5080470;28;45369;-75
2024/01/29 05:23:50;;;;;;;;;32.00;26.33;;;;;;;;5081733;27;45420;-75
2024/01/29 05:26:15;;;;;;;;;34.50;31.75;;;;;;;;5083732;27;45539;-75
2024/01/29 05:28:40;;;;;;;;;31.50;29.25;;;;;;;;5080266;28;45410;-75
2024/01/29 05:31:06;;;;;;;;;32.00;28.50;;;;;;;;5076213;28;45334;-74
2024/01/29 05:33:31;;;;;;;;;30.00;28.75;;;;;;;;5081253;28;45594;-75
2024/01/29 05:35:56;;;;;;;;;30.33;27.00;;;;;;;;5071079;28;45503;-75
2024/01/29 05:38:21;;;;;;;;;33.00;29.33;;;;;;;;5081014;28;45325;-74
2024/01/29 05:40:46;;;;;;;;;29.00;25.00;;;;;;;;5072476;28;45411;-75
2024/01/29 05:43:12;;;;;;;;;30.67;28.00;;;;;;;;5082142;28;45319;-75
2024/01/29 05:45:37;;;;;;;;;33.25;25.75;;;;;;;;5067061;28;46448;-75
2024/01/29 05:48:04;;;;;;;;;20.67;20.00;;;;;;;;5074714;28;45424;-75
2024/01/29 05:50:29;;;;;;;;;31.75;26.50;;;;;;;;5073023;28;45433;-76
2024/01/29 05:52:54;;;;;;;;;24.00;23.33;;;;;;;;5077285;28;45279;-76
2024/01/29 05:55:19;;;;;;;;;21.33;20.33;;;;;;;;5081244;28;47842;-75
2024/01/29 05:57:44;;;;;;;;;30.00;25.33;;;;;;;;5079459;28;45269;-75
2024/01/29 06:00:10;;;;;;;;;29.67;26.33;;;;;;;;5078118;28;45300;-76
2024/01/29 06:02:42;;;;;;;;;33.00;25.33;;;;;;;;5081636;28;45494;-75
2024/01/29 06:05:10;;;;;;;;;34.00;25.67;;;;;;;;5083147;28;48119;-75
2024/01/29 06:07:35;;;;;;;;;31.25;28.00;;;;;;;;5080105;28;45191;-75
2024/01/29 06:10:01;;;;;;;;;28.25;25.00;;;;;;;;5083222;27;45318;-75
2024/01/29 06:12:26;;;;;;;;;17.00;10.25;;;;;;;;5082807;28;45244;-75
2024/01/29 06:14:51;;;;;;;;;29.33;23.67;;;;;;;;5078709;28;46613;-76
2024/01/29 06:17:16;;;;;;;;;31.25;29.50;;;;;;;;5085125;28;45416;-75
2024/01/29 06:19:41;;;;;;;;;32.67;28.00;;;;;;;;5082244;27;45318;-75
2024/01/29 06:22:06;;;;;;;;;25.00;23.00;;;;;;;;5084962;28;45329;-76
2024/01/29 06:24:32;;;;;;;;;28.67;24.00;;;;;;;;5080393;28;46980;-75
2024/01/29 06:26:57;;;;;;;;;28.50;26.00;;;;;;;;5083121;28;45747;-76
2024/01/29 06:29:22;;;;;;;;;27.67;24.33;;;;;;;;5072846;28;45236;-75
2024/01/29 06:31:47;;;;;;;;;33.00;29.67;;;;;;;;5076905;28;45429;-75
2024/01/29 06:34:12;;;;;;;;;26.67;24.33;;;;;;;;5081044;28;45602;-75
2024/01/29 06:36:37;;;;;;;;;34.00;29.00;;;;;;;;5083169;28;45377;-76
2024/01/29 06:39:03;;;;;;;;;28.50;26.75;;;;;;;;5079509;27;45180;-75
2024/01/29 06:41:28;;;;;;;;;32.33;26.00;;;;;;;;5072276;28;45529;-76
2024/01/29 06:43:54;;;;;;;;;29.00;25.00;;;;;;;;5080560;28;47245;-75
2024/01/29 06:46:20;;;;;;;;;27.00;27.00;;;;;;;;5069591;28;45219;-76
2024/01/29 06:48:45;;;;;;;;;29.50;25.50;;;;;;;;5076712;28;45281;-76
2024/01/29 06:51:11;;;;;;;;;30.25;27.25;;;;;;;;5072863;28;45611;-75
2024/01/29 06:53:37;;;;;;;;;34.00;29.00;;;;;;;;5080263;28;45483;-75
2024/01/29 06:56:04;;;;;;;;;31.67;26.67;;;;;;;;5075848;28;45417;-76
2024/01/29 06:58:29;;;;;;;;;27.75;25.00;;;;;;;;5082107;28;45460;-75
2024/01/29 07:00:55;;;;;;;;;29.33;24.67;;;;;;;;5078024;28;45287;-77
2024/01/29 07:03:20;;;;;;;;;26.67;25.00;;;;;;;;5082672;28;45606;-75
2024/01/29 07:05:47;;;;;;;;;32.75;28.75;;;;;;;;5070807;28;45306;-76
2024/01/29 07:08:12;;;;;;;;;31.25;25.00;;;;;;;;5081962;28;45248;-76
2024/01/29 07:10:37;;;;;;;;;28.67;25.67;;;;;;;;5074028;28;45313;-75
2024/01/29 07:13:03;;;;;;;;;27.33;24.33;;;;;;;;5082227;28;48416;-78
2024/01/29 07:15:28;;;;;;;;;20.00;20.00;;;;;;;;5078960;28;45472;-77
2024/01/29 07:17:53;;;;;;;;;28.00;25.00;;;;;;;;5083775;28;45492;-75
2024/01/29 07:20:19;;;;;;;;;25.00;24.67;;;;;;;;5081469;28;45379;-77
2024/01/29 07:22:46;;;;;;;;;30.67;24.00;;;;;;;;5082859;28;46531;-75
2024/01/29 07:25:11;;;;;;;;;35.67;29.00;;;;;;;;5077397;27;45419;-75
2024/01/29 07:27:36;;;;;;;;;30.00;27.67;;;;;;;;5079628;27;45360;-75
2024/01/29 07:30:01;;;;;;;;;25.33;25.33;;;;;;;;5072880;28;45547;-75
2024/01/29 07:32:31;;;;;;;;;23.00;20.00;;;;;;;;5079163;28;45402;-74
2024/01/29 07:34:57;;;;;;;;;30.33;30.33;;;;;;;;5073757;27;45699;-74
2024/01/29 07:37:22;;;;;;;;;31.67;26.33;;;;;;;;5081630;28;45212;-74
2024/01/29 07:39:47;;;;;;;;;25.67;25.00;;;;;;;;5078400;28;45498;-75
2024/01/29 07:42:12;;;;;;;;;33.00;26.00;;;;;;;;5081681;28;46460;-74
2024/01/29 07:44:38;;;;;;;;;26.67;26.67;;;;;;;;5074404;28;45218;-76
2024/01/29 07:47:03;;;;;;;;;29.33;25.67;;;;;;;;5075075;28;45309;-75
2024/01/29 07:49:29;;;;;;;;;24.33;24.33;;;;;;;;5075090;28;45360;-75
2024/01/29 07:51:54;;;;;;;;;31.67;25.00;;;;;;;;5074692;28;46453;-74
2024/01/29 07:54:19;;;;;;;;;29.33;28.00;;;;;;;;5080423;28;45377;-75
2024/01/29 07:56:45;;;;;;;;;32.33;28.33;;;;;;;;5076764;28;45278;-75
2024/01/29 07:59:10;;;;;;;;;29.33;25.00;;;;;;;;5080400;28;45332;-75
2024/01/29 08:01:35;;;;;;;;;26.00;21.67;;;;;;;;5083138;28;45733;-75
2024/01/29 08:04:01;;;;;;;;;34.67;29.00;;;;;;;;5078922;28;45408;-75
2024/01/29 08:06:26;;;;;;;;;27.33;24.67;;;;;;;;5074249;28;45411;-75
2024/01/29 08:08:52;;;;;;;;;31.33;24.67;;;;;;;;5080431;28;45354;-75
2024/01/29 08:11:17;;;;;;;;;29.67;24.00;;;;;;;;5075291;28;45550;-74
2024/01/29 08:13:42;;;;;;;;;31.75;28.50;;;;;;;;5080019;28;45429;-75
2024/01/29 08:16:08;;;;;;;;;27.33;24.33;;;;;;;;5078807;27;45344;-76
2024/01/29 08:18:33;;;;;;;;;31.00;31.00;;;;;;;;5080016;28;45475;-76
2024/01/29 08:20:58;;;;;;;;;29.00;24.33;;;;;;;;5080764;28;46600;-74
2024/01/29 08:23:23;;;;;;;;;28.33;25.33;;;;;;;;5080008;28;47596;-77
2024/01/29 08:25:49;;;;;;;;;24.33;24.33;;;;;;;;5072519;28;45331;-75
2024/01/29 08:28:14;;;;;;;;;29.50;29.50;;;;;;;;5083877;28;45270;-77
2024/01/29 08:30:39;;;;;;;;;29.00;27.00;;;;;;;;5068570;28;45428;-73
2024/01/29 08:33:04;;;;;;;;;27.33;26.00;;;;;;;;5083024;28;45479;-75
2024/01/29 08:35:29;;;;;;;;;32.67;27.33;;;;;;;;5078025;28;45464;-75
2024/01/29 08:37:55;;;;;;;;;27.75;27.00;;;;;;;;5072005;28;45566;-74
2024/01/29 08:40:20;;;;;;;;;34.67;25.67;;;;;;;;5069187;28;45479;-75
2024/01/29 08:42:47;;;;;;;;;27.00;23.67;;;;;;;;5081732;27;45421;-73
2024/01/29 08:45:16;;;;;;;;;25.33;20.67;;;;;;;;5070964;28;45378;-75
2024/01/29 08:47:41;;;;;;;;;22.67;18.00;;;;;;;;5080975;28;45441;-74
2024/01/29 08:50:06;;;;;;;;;26.67;25.67;;;;;;;;5073653;28;46296;-75
2024/01/29 08:52:31;;;;;;;;;24.67;20.67;;;;;;;;5080070;27;45436;-74
2024/01/29 08:54:56;;;;;;;;;28.00;23.00;;;;;;;;5074498;28;45541;-75
2024/01/29 08:57:22;;;;;;;;;31.33;24.00;;;;;;;;5077193;28;45911;-74
2024/01/29 08:59:47;;;;;;;;;29.67;25.33;;;;;;;;5078664;28;46569;-74
2024/01/29 09:02:12;;;;;;;;;28.33;24.67;;;;;;;;5078087;28;45454;-75
2024/01/29 09:04:38;;;;;;;;;22.00;22.00;;;;;;;;5074657;28;45386;-73
2024/01/29 09:07:03;;;;;;;;;26.33;22.33;;;;;;;;5082967;28;45293;-73
2024/01/29 09:09:28;;;;;;;;;30.67;24.67;;;;;;;;5079319;28;48031;-74
2024/01/29 09:11:53;;;;;;;;;29.33;22.67;;;;;;;;5078345;28;45489;-74
2024/01/29 09:14:20;;;;;;;;;22.00;19.33;;;;;;;;5079443;28;45449;-74
2024/01/29 09:16:45;;;;;;;;;25.00;22.33;;;;;;;;5079741;28;45606;-73
2024/01/29 09:19:11;;;;;;;;;28.00;22.33;;;;;;;;5080838;27;46490;-73
2024/01/29 09:21:37;;;;;;;;;23.00;22.00;;;;;;;;5073021;28;45364;-75
2024/01/29 09:24:02;;;;;;;;;21.67;19.67;;;;;;;;5076937;28;45160;-75
2024/01/29 09:26:28;;;;;;;;;19.67;19.00;;;;;;;;5077455;28;45435;-75
2024/01/29 09:28:53;;;;;;;;;19.67;19.67;;;;;;;;5080112;27;46174;-73
2024/01/29 09:31:18;;;;;;;;;22.00;20.67;;;;;;;;5072216;28;45459;-74
2024/01/29 09:33:44;;;;;;;;;24.33;21.67;;;;;;;;5079707;28;45329;-74
2024/01/29 09:36:09;;;;;;;;;23.67;20.33;;;;;;;;5074981;27;45382;-73
2024/01/29 09:38:34;;;;;;;;;22.00;21.33;;;;;;;;5079987;28;46459;-74
2024/01/29 09:41:00;;;;;;;;;25.33;21.67;;;;;;;;5071726;28;45421;-74
2024/01/29 09:43:25;;;;;;;;;30.00;20.67;;;;;;;;5077077;28;45305;-75
2024/01/29 09:45:51;;;;;;;;;19.67;18.67;;;;;;;;5074439;28;45572;-75
2024/01/29 09:48:17;;;;;;;;;24.67;19.33;;;;;;;;5077630;28;45879;-75
2024/01/29 09:50:46;;;;;;;;;30.00;24.33;;;;;;;;5072111;28;45450;-73
2024/01/29 09:53:16;;;;;;;;;24.67;23.33;;;;;;;;5078407;28;45482;-73
2024/01/29 09:55:41;;;;;;;;;25.00;20.67;;;;;;;;5075032;28;45519;-75
2024/01/29 09:58:07;;;;;;;;;29.00;22.67;;;;;;;;5076169;27;46116;-75
2024/01/29 10:00:32;;;;;;;;;29.33;26.00;;;;;;;;5074739;28;45443;-74
2024/01/29 10:02:59;;;;;;;;;31.00;24.67;;;;;;;;5085959;27;45226;-73
2024/01/29 10:05:29;;;;;;;;;30.33;26.33;;;;;;;;5069451;27;45582;-74
2024/01/29 10:07:56;;;;;;;;;28.00;24.00;;;;;;;;5079428;28;46249;-74
2024/01/29 10:10:21;;;;;;;;;25.00;22.67;;;;;;;;5069488;28;45364;-75
2024/01/29 10:12:46;;;;;;;;;29.00;25.00;;;;;;;;5079979;28;45477;-75
2024/01/29 10:15:12;;;;;;;;;27.67;24.33;;;;;;;;5072581;28;45611;-75
2024/01/29 10:17:37;;;;;;;;;24.67;23.67;;;;;;;;5079582;28;46802;-74
2024/01/29 10:20:04;;;;;;;;;31.67;23.33;;;;;;;;5072826;27;45389;-74
2024/01/29 10:22:29;;;;;;;;;25.33;24.00;;;;;;;;5079593;28;45254;-74
2024/01/29 10:25:04;;;;;;;;;22.00;20.67;;;;;;;;5075214;28;45305;-74
2024/01/29 10:27:29;;;;;;;;;25.67;23.33;;;;;;;;5080142;28;47217;-73
2024/01/29 10:29:54;;;;;;;;;24.67;22.00;;;;;;;;5074309;28;45271;-74
2024/01/29 10:32:20;;;;;;;;;30.33;25.00;;;;;;;;5070054;28;45199;-73
2024/01/29 10:34:45;;;;;;;;;29.33;26.67;;;;;;;;5076753;28;45348;-74
2024/01/29 10:37:11;;;;;;;;;23.00;20.00;;;;;;;;5074330;28;45421;-74
2024/01/29 10:39:38;;;;;;;;;21.33;19.67;;;;;;;;5080679;28;45768;-73
2024/01/29 10:42:05;;;;;;;;;26.67;22.00;;;;;;;;5084196;28;45270;-75
2024/01/29 10:44:32;;;;;;;;;26.67;25.00;;;;;;;;5078878;27;45597;-74
2024/01/29 10:46:59;;;;;;;;;20.67;19.67;;;;;;;;5078243;28;45382;-74
2024/01/29 10:49:24;;;;;;;;;24.33;21.33;;;;;;;;5078940;28;45455;-75
2024/01/29 10:51:51;;;;;;;;;21.00;18.67;;;;;;;;5078920;28;45291;-73
2024/01/29 10:54:17;;;;;;;;;24.00;20.67;;;;;;;;5083516;28;45372;-75
2024/01/29 10:56:42;;;;;;;;;26.00;22.00;;;;;;;;5079584;28;46805;-74
2024/01/29 10:59:08;;;;;;;;;28.67;25.33;;;;;;;;5080701;28;45494;-74
2024/01/29 11:01:34;;;;;;;;;21.67;18.33;;;;;;;;5074683;28;45258;-74
2024/01/29 11:04:00;;;;;;;;;21.67;20.67;;;;;;;;5082154;28;45424;-75
2024/01/29 11:06:46;;;;;;;;;28.00;25.00;;;;;;;;5078229;28;45174;-73
2024/01/29 11:09:14;;;;;;;;;27.67;23.00;;;;;;;;5093278;28;44745;-72
2024/01/29 11:11:41;;;;;;;;;19.00;18.67;;;;;;;;5086680;28;45424;-73
2024/01/29 11:14:09;;;;;;;;;24.00;22.33;;;;;;;;5084275;28;45343;-75
2024/01/29 11:16:35;;;;;;;;;29.67;24.33;;;;;;;;5082943;28;46710;-75
2024/01/29 11:19:00;;;;;;;;;22.00;21.00;;;;;;;;5087423;28;45353;-74
2024/01/29 11:21:26;;;;;;;;;25.00;24.67;;;;;;;;5084411;28;45436;-75
2024/01/29 11:23:54;;;;;;;;;29.33;23.33;;;;;;;;5082809;28;45512;-76
2024/01/29 11:26:21;;;;;;;;;23.00;23.00;;;;;;;;5081534;28;46385;-76
2024/01/29 11:28:53;;;;;;;;;20.67;17.67;;;;;;;;5080660;28;45326;-76
2024/01/29 11:31:18;;;;;;;;;29.00;24.00;;;;;;;;5070199;28;45353;-75
2024/01/29 11:33:44;;;;;;;;;29.33;22.67;;;;;;;;5081515;28;45588;-74
2024/01/29 11:36:12;;;;;;;;;31.00;28.67;;;;;;;;5079457;28;46871;-74
2024/01/29 11:38:38;;;;;;;;;31.67;29.67;;;;;;;;5082032;28;45408;-75
2024/01/29 11:41:03;;;;;;;;;29.00;24.33;;;;;;;;5079739;28;45530;-77
2024/01/29 11:43:28;;;;;;;;;28.00;24.67;;;;;;;;5085098;27;45674;-74
2024/01/29 11:45:54;;;;;;;;;25.67;25.67;;;;;;;;5077625;28;45396;-73
2024/01/29 11:48:21;;;;;;;;;27.33;24.33;;;;;;;;5084822;28;45324;-75
2024/01/29 11:50:47;;;;;;;;;24.33;18.33;;;;;;;;5075832;28;45392;-74
2024/01/29 11:53:16;;;;;;;;;21.33;21.33;;;;;;;;5079665;28;45461;-74
2024/01/29 11:55:42;;;;;;;;;11.33;8.00;;;;;;;;5073919;27;46853;-75
2024/01/29 11:58:12;;;;;;;;;17.00;15.00;;;;;;;;5081052;28;45329;-74
2024/01/29 12:00:37;;;;;;;;;22.00;19.33;;;;;;;;5073698;27;45427;-74
2024/01/29 12:03:03;;;;;;;;;21.33;16.33;;;;;;;;5081578;28;45362;-75
2024/01/29 12:05:28;;;;;;;;;18.00;15.00;;;;;;;;5074068;28;45458;-74
2024/01/29 12:07:53;;;;;;;;;24.33;22.67;;;;;;;;5081256;28;45518;-72
2024/01/29 12:10:18;;;;;;;;;23.00;20.67;;;;;;;;5068853;28;45357;-74
2024/01/29 12:12:44;;;;;;;;;21.33;19.67;;;;;;;;5083088;27;45545;-75
2024/01/29 12:15:12;;;;;;;;;20.00;18.00;;;;;;;;5079103;28;45459;-74
2024/01/29 12:17:39;;;;;;;;;29.00;23.67;;;;;;;;5082726;28;45423;-73
2024/01/29 12:20:05;;;;;;;;;22.67;20.67;;;;;;;;5076737;28;45529;-74
2024/01/29 12:22:31;;;;;;;;;22.33;19.00;;;;;;;;5078627;28;45383;-74
2024/01/29 12:24:57;;;;;;;;;17.00;14.33;;;;;;;;5076449;28;46088;-73
2024/01/29 12:27:22;;;;;;;;;19.00;18.00;;;;;;;;5080026;27;45454;-74
2024/01/29 12:29:47;;;;;;;;;26.00;19.67;;;;;;;;5074080;27;45504;-73
2024/01/29 12:32:12;;;;;;;;;16.33;15.33;;;;;;;;5078264;28;45534;-74
2024/01/29 12:34:44;;;;;;;;;18.67;17.00;;;;;;;;5076610;28;47314;-75
2024/01/29 12:37:16;;;;;;;;;10.33;9.00;;;;;;;;5078497;28;45619;-74
2024/01/29 12:39:42;;;;;;;;;20.67;18.67;;;;;;;;5070829;28;45397;-74
2024/01/29 12:42:13;;;;;;;;;19.00;18.00;;;;;;;;5082268;28;45481;-74
2024/01/29 12:44:38;;;;;;;;;22.00;17.33;;;;;;;;5074583;28;45444;-73
2024/01/29 12:47:03;;;;;;;;;19.67;18.33;;;;;;;;5074381;28;45497;-73
2024/01/29 12:49:28;;;;;;;;;23.67;19.00;;;;;;;;5074967;28;45655;-74
2024/01/29 12:51:54;;;;;;;;;20.00;17.33;;;;;;;;5076848;28;45496;-75
2024/01/29 12:54:19;;;;;;;;;19.00;18.33;;;;;;;;5077504;27;48112;-74
2024/01/29 12:56:44;;;;;;;;;17.00;14.33;;;;;;;;5077482;28;45244;-73
2024/01/29 12:59:09;;;;;;;;;16.33;13.67;;;;;;;;5080893;28;45626;-75
2024/01/29 13:01:34;;;;;;;;;16.00;12.67;;;;;;;;5074853;28;45338;-74
2024/01/29 13:04:00;;;;;;;;;13.00;11.33;;;;;;;;5079732;28;45397;-74
2024/01/29 13:06:25;;;;;;;;;12.67;10.00;;;;;;;;5074644;28;45491;-74
2024/01/29 13:08:50;;;;;;;;;9.00;9.00;;;;;;;;5078799;28;45432;-74
2024/01/29 13:11:15;;;;;;;;;14.00;8.33;;;;;;;;5079570;28;45300;-74
2024/01/29 13:13:40;;;;;;;;;7.33;7.33;;;;;;;;5079440;28;46783;-75
2024/01/29 13:16:06;;;;;;;;;9.67;6.67;;;;;;;;5081368;28;45334;-72
2024/01/29 13:18:32;;;;;;;;;7.00;7.00;;;;;;;;5081155;28;45138;-73
2024/01/29 13:20:57;;;;;;;;;14.33;11.00;;;;;;;;5064634;28;45337;-72
2024/01/29 13:23:23;;;;;;;;;8.00;8.00;;;;;;;;5072826;28;45265;-75
2024/01/29 13:25:48;;;;;;;;;10.33;8.33;;;;;;;;5074194;27;45310;-73
2024/01/29 13:28:13;;;;;;;;;8.00;7.67;;;;;;;;5082980;28;45353;-73
2024/01/29 13:30:39;;;;;;;;;5.33;5.33;;;;;;;;5079435;27;47789;-74
2024/01/29 13:33:05;;;;;;;;;9.67;9.67;;;;;;;;5082209;28;45906;-73
2024/01/29 13:35:31;;;;;;;;;10.00;7.67;;;;;;;;5073945;28;45587;-74
2024/01/29 13:37:56;;;;;;;;;3.00;3.00;;;;;;;;5082063;28;45305;-74
2024/01/29 13:40:21;;;;;;;;;9.33;9.33;;;;;;;;5077258;28;45626;-73
2024/01/29 13:42:48;;;;;;;;;8.67;8.67;;;;;;;;5082690;28;46260;-74
2024/01/29 13:45:13;;;;;;;;;9.33;8.00;;;;;;;;5073286;28;45459;-76
2024/01/29 13:47:38;;;;;;;;;8.33;8.33;;;;;;;;5075688;28;45506;-74
2024/01/29 13:50:04;;;;;;;;;10.67;9.67;;;;;;;;5074960;28;45522;-75
2024/01/29 13:52:29;;;;;;;;;7.00;5.67;;;;;;;;5075981;27;45418;-73
2024/01/29 13:54:54;;;;;;;;;7.00;7.00;;;;;;;;5080448;28;45332;-74
2024/01/29 13:57:19;;;;;;;;;8.33;8.33;;;;;;;;5077248;28;45464;-74
2024/01/29 13:59:45;;;;;;;;;7.67;7.33;;;;;;;;5074082;28;45345;-74
2024/01/29 14:02:10;;;;;;;;;9.67;8.00;;;;;;;;5076952;28;45987;-74
2024/01/29 14:04:35;;;;;;;;;8.67;7.33;;;;;;;;5078691;28;45462;-74
2024/01/29 14:07:01;;;;;;;;;7.00;5.67;;;;;;;;5076292;28;45503;-73
2024/01/29 14:09:26;;;;;;;;;7.00;6.67;;;;;;;;5074062;28;45428;-73